createdAt,value
2018-03-20T00:01:03.789Z,-2.37
2018-03-20T00:03:31.288Z,-2.46
2018-03-20T00:05:58.735Z,-2.52
2018-03-20T00:08:26.432Z,-2.49
2018-03-20T00:10:53.944Z,-2.49
2018-03-20T00:13:21.444Z,-2.49
2018-03-20T00:15:48.956Z,-2.48
2018-03-20T00:18:16.503Z,-2.40
2018-03-20T00:20:44.057Z,-2.32
2018-03-20T00:23:11.584Z,-2.38
2018-03-20T00:25:39.099Z,-2.48
2018-03-20T00:28:06.571Z,-2.39
2018-03-20T00:30:34.063Z,-2.38
2018-03-20T00:33:01.546Z,-2.46
2018-03-20T00:35:29.128Z,-2.33
2018-03-20T00:37:56.598Z,-2.32
2018-03-20T00:40:24.513Z,-2.42
2018-03-20T00:42:51.992Z,-2.46
2018-03-20T00:45:20.272Z,-2.41
2018-03-20T00:47:47.749Z,-2.32
2018-03-20T00:50:15.414Z,-2.37
2018-03-20T00:52:42.926Z,-2.38
2018-03-20T00:55:10.451Z,-2.40
2018-03-20T00:57:37.909Z,-2.29
2018-03-20T01:00:05.383Z,-2.31
2018-03-20T01:02:32.946Z,-2.30
2018-03-20T01:05:00.446Z,-2.33
2018-03-20T01:07:27.921Z,-2.23
2018-03-20T01:09:55.393Z,-2.17
2018-03-20T01:12:22.880Z,-2.19
2018-03-20T01:14:50.380Z,-2.29
2018-03-20T01:17:17.864Z,-2.28
2018-03-20T01:19:45.338Z,-2.27
2018-03-20T01:22:12.896Z,-2.28
2018-03-20T01:24:40.361Z,-2.27
2018-03-20T01:27:07.836Z,-2.26
2018-03-20T01:29:35.303Z,-2.27
2018-03-20T01:32:02.780Z,-2.19
2018-03-20T01:34:30.418Z,-2.27
2018-03-20T01:36:57.909Z,-2.42
2018-03-20T01:39:25.407Z,-2.43
2018-03-20T01:41:52.892Z,-2.33
2018-03-20T01:44:20.400Z,-2.30
2018-03-20T01:46:48.265Z,-2.40
2018-03-20T01:49:15.907Z,-2.39
2018-03-20T01:51:43.411Z,-2.41
2018-03-20T01:54:10.875Z,-2.31
2018-03-20T01:56:38.356Z,-2.40
2018-03-20T01:59:05.849Z,-2.34
2018-03-20T02:01:33.300Z,-2.37
2018-03-20T02:04:00.778Z,-2.29
2018-03-20T02:06:28.336Z,-2.26
2018-03-20T02:08:55.819Z,-2.33
2018-03-20T02:11:23.309Z,-2.29
2018-03-20T02:13:50.791Z,-2.34
2018-03-20T02:16:18.258Z,-2.38
2018-03-20T02:18:46.649Z,-2.44
2018-03-20T02:21:14.338Z,-2.44
2018-03-20T02:23:41.828Z,-2.40
2018-03-20T02:26:09.324Z,-2.33
2018-03-20T02:28:36.920Z,-2.29
2018-03-20T02:31:04.463Z,-2.27
2018-03-20T02:33:31.951Z,-2.35
2018-03-20T02:35:59.429Z,-2.32
2018-03-20T02:38:26.917Z,-2.27
2018-03-20T02:40:54.400Z,-2.37
2018-03-20T02:43:21.887Z,-2.38
2018-03-20T02:45:49.354Z,-2.32
2018-03-20T02:48:16.836Z,-2.33
2018-03-20T02:50:44.310Z,-2.24
2018-03-20T02:53:11.774Z,-2.27
2018-03-20T02:55:39.321Z,-2.28
2018-03-20T02:58:06.828Z,-2.32
2018-03-20T03:00:34.290Z,-2.24
2018-03-20T03:03:01.824Z,-2.13
2018-03-20T03:05:29.386Z,-2.24
2018-03-20T03:07:56.943Z,-2.21
2018-03-20T03:10:24.428Z,-2.05
2018-03-20T03:12:51.891Z,-2.23
2018-03-20T03:15:19.438Z,-2.07
2018-03-20T03:17:46.947Z,-2.25
2018-03-20T03:20:14.501Z,-2.31
2018-03-20T03:22:41.965Z,-2.39
2018-03-20T03:25:09.565Z,-2.39
2018-03-20T03:27:37.019Z,-2.25
2018-03-20T03:30:04.480Z,-2.32
2018-03-20T03:32:32.009Z,-2.38
2018-03-20T03:34:59.475Z,-2.43
2018-03-20T03:37:27.042Z,-2.50
2018-03-20T03:39:54.502Z,-2.45
2018-03-20T03:42:22.001Z,-2.53
2018-03-20T03:44:49.484Z,-2.57
2018-03-20T03:47:16.971Z,-2.57
2018-03-20T03:49:44.442Z,-2.47
2018-03-20T03:52:12.000Z,-2.65
2018-03-20T03:54:39.473Z,-2.52
2018-03-20T03:57:06.990Z,-2.59
2018-03-20T03:59:34.484Z,-2.42
2018-03-20T04:02:01.954Z,-2.46
2018-03-20T04:04:29.806Z,-2.41
2018-03-20T04:06:57.305Z,-2.49
2018-03-20T04:09:24.775Z,-2.40
2018-03-20T04:11:52.267Z,-2.48
2018-03-20T04:14:19.747Z,-2.51
2018-03-20T04:16:47.256Z,-2.41
2018-03-20T04:19:14.739Z,-2.36
2018-03-20T04:21:42.220Z,-2.34
2018-03-20T04:24:09.702Z,-2.40
2018-03-20T04:26:37.169Z,-2.26
2018-03-20T04:29:04.688Z,-2.21
2018-03-20T04:31:32.168Z,-2.27
2018-03-20T04:33:59.644Z,-2.35
2018-03-20T04:36:27.291Z,-2.47
2018-03-20T04:38:54.762Z,-2.29
2018-03-20T04:41:22.283Z,-2.36
2018-03-20T04:43:49.769Z,-2.34
2018-03-20T04:46:17.253Z,-2.21
2018-03-20T04:48:45.004Z,-2.29
2018-03-20T04:51:12.479Z,-2.24
2018-03-20T04:53:39.953Z,-2.27
2018-03-20T04:56:07.433Z,-2.26
2018-03-20T04:58:34.890Z,-2.20
2018-03-20T05:01:02.380Z,-2.16
2018-03-20T05:03:29.844Z,-2.22
2018-03-20T05:05:57.327Z,-2.28
2018-03-20T05:08:24.808Z,-2.20
2018-03-20T05:10:52.288Z,-2.25
2018-03-20T05:13:19.754Z,-2.19
2018-03-20T05:15:47.240Z,-2.16
2018-03-20T05:18:14.745Z,-2.02
2018-03-20T05:20:47.836Z,-1.90
2018-03-20T05:23:15.313Z,-1.99
2018-03-20T05:25:42.797Z,-2.06
2018-03-20T05:28:10.286Z,-2.23
2018-03-20T05:30:37.762Z,-2.17
2018-03-20T05:33:05.228Z,-2.24
2018-03-20T05:35:32.705Z,-2.05
2018-03-20T05:38:00.167Z,-2.16
2018-03-20T05:40:27.627Z,-2.28
2018-03-20T05:42:55.153Z,-2.11
2018-03-20T05:45:22.633Z,-2.08
2018-03-20T05:50:55.637Z,-2.03
2018-03-20T05:53:23.135Z,-2.07
2018-03-20T05:55:50.592Z,-2.05
2018-03-20T05:58:18.133Z,-2.00
2018-03-20T06:00:45.939Z,-1.88
2018-03-20T06:03:13.538Z,-1.97
2018-03-20T06:05:41.098Z,-1.94
2018-03-20T06:08:08.601Z,-1.97
2018-03-20T06:10:36.079Z,-1.86
2018-03-20T06:13:03.532Z,-1.92
2018-03-20T06:15:31.055Z,-1.86
2018-03-20T06:17:58.505Z,-1.78
2018-03-20T06:20:25.975Z,-1.80
2018-03-20T06:22:53.477Z,-1.89
2018-03-20T06:25:20.932Z,-1.70
2018-03-20T06:27:48.403Z,-1.62
2018-03-20T06:30:15.888Z,-1.34
2018-03-20T06:32:43.478Z,-0.90
2018-03-20T06:35:10.984Z,-0.91
2018-03-20T06:37:38.435Z,-1.06
2018-03-20T06:40:05.901Z,-1.41
2018-03-20T06:42:33.384Z,-1.49
2018-03-20T06:45:00.843Z,-1.48
2018-03-20T06:47:28.308Z,-1.57
2018-03-20T06:49:55.778Z,-1.48
2018-03-20T06:52:23.271Z,-1.56
2018-03-20T06:54:50.729Z,-1.46
2018-03-20T06:57:18.206Z,-1.53
2018-03-20T06:59:45.659Z,-1.70
2018-03-20T07:02:13.282Z,-1.59
2018-03-20T07:04:40.807Z,-1.48
2018-03-20T07:07:08.256Z,-1.37
2018-03-20T07:09:35.724Z,-1.39
2018-03-20T07:12:03.239Z,-1.41
2018-03-20T07:14:30.831Z,-1.20
2018-03-20T07:16:58.351Z,-1.26
2018-03-20T07:19:25.825Z,-1.19
2018-03-20T07:21:53.291Z,-1.19
2018-03-20T07:24:20.810Z,-0.91
2018-03-20T07:26:48.295Z,-1.07
2018-03-20T07:29:15.797Z,-0.88
2018-03-20T07:31:43.279Z,-0.84
2018-03-20T07:34:10.754Z,-0.78
2018-03-20T07:36:38.219Z,-0.83
2018-03-20T07:39:05.679Z,-0.77
2018-03-20T07:41:33.189Z,-0.68
2018-03-20T07:44:00.675Z,-0.79
2018-03-20T07:46:28.123Z,-0.84
2018-03-20T07:48:55.587Z,-0.88
2018-03-20T07:51:23.076Z,-0.78
2018-03-20T07:53:50.558Z,-0.68
2018-03-20T07:56:18.019Z,-0.54
2018-03-20T07:58:45.501Z,-0.16
2018-03-20T08:01:12.959Z,-0.34
2018-03-20T08:03:40.439Z,-0.60
2018-03-20T08:06:07.910Z,-0.49
2018-03-20T08:08:35.367Z,-0.41
2018-03-20T08:11:02.855Z,-0.25
2018-03-20T08:13:30.354Z,-0.04
2018-03-20T08:15:57.852Z,-0.03
2018-03-20T08:18:25.383Z,0.15
2018-03-20T08:20:52.847Z,0.11
2018-03-20T08:23:20.323Z,-0.15
2018-03-20T08:25:47.797Z,-0.12
2018-03-20T08:28:15.558Z,0.01
2018-03-20T08:30:43.132Z,-0.01
2018-03-20T08:33:10.704Z,-0.08
2018-03-20T08:35:38.184Z,-0.10
2018-03-20T08:38:05.679Z,-0.15
2018-03-20T08:40:33.474Z,-0.03
2018-03-20T08:43:00.939Z,0.00
2018-03-20T08:45:28.407Z,-0.06
2018-03-20T08:47:55.871Z,0.06
2018-03-20T08:50:23.348Z,0.15
2018-03-20T08:52:50.842Z,0.08
2018-03-20T08:55:18.332Z,0.13
2018-03-20T08:57:45.805Z,-0.06
2018-03-20T09:00:13.303Z,0.14
2018-03-20T09:02:40.800Z,-0.10
2018-03-20T09:05:08.270Z,0.01
2018-03-20T09:07:35.761Z,0.12
2018-03-20T09:10:03.280Z,0.17
2018-03-20T09:12:30.944Z,0.22
2018-03-20T09:14:58.412Z,0.69
2018-03-20T09:17:25.856Z,0.79
2018-03-20T09:19:53.451Z,0.54
2018-03-20T09:22:20.901Z,0.75
2018-03-20T09:24:51.304Z,0.76
2018-03-20T09:27:18.785Z,0.99
2018-03-20T09:29:46.259Z,1.00
2018-03-20T09:32:13.999Z,0.81
2018-03-20T09:34:41.463Z,1.05
2018-03-20T09:37:08.945Z,1.02
2018-03-20T09:39:36.481Z,1.01
2018-03-20T09:42:03.966Z,0.93
2018-03-20T09:44:31.985Z,0.67
2018-03-20T09:46:59.436Z,0.68
2018-03-20T09:49:26.922Z,0.82
2018-03-20T09:51:54.639Z,0.64
2018-03-20T09:54:22.123Z,0.88
2018-03-20T09:56:51.388Z,0.88
2018-03-20T09:59:19.155Z,0.98
2018-03-20T10:01:51.695Z,0.75
2018-03-20T10:04:19.171Z,0.78
2018-03-20T10:06:46.650Z,1.10
2018-03-20T10:09:14.134Z,1.32
2018-03-20T10:11:41.608Z,1.48
2018-03-20T10:14:09.107Z,1.34
2018-03-20T10:16:36.592Z,1.82
2018-03-20T10:19:04.110Z,1.93
2018-03-20T10:21:31.597Z,1.68
2018-03-20T10:23:59.115Z,1.46
2018-03-20T10:26:26.601Z,1.68
2018-03-20T10:28:54.056Z,1.39
2018-03-20T10:31:21.514Z,1.29
2018-03-20T10:33:49.048Z,1.44
2018-03-20T10:36:16.539Z,1.36
2018-03-20T10:38:44.190Z,1.29
2018-03-20T10:41:11.690Z,1.29
2018-03-20T10:43:39.177Z,1.09
2018-03-20T10:46:06.686Z,1.18
2018-03-20T10:48:34.767Z,1.13
2018-03-20T10:51:02.260Z,1.27
2018-03-20T10:53:29.773Z,1.57
2018-03-20T10:55:58.671Z,1.66
2018-03-20T10:58:26.173Z,1.86
2018-03-20T11:00:59.307Z,2.10
2018-03-20T11:03:26.822Z,2.47
2018-03-20T11:05:54.372Z,2.19
2018-03-20T11:08:23.253Z,2.24
2018-03-20T11:10:50.719Z,2.19
2018-03-20T11:13:18.176Z,2.34
2018-03-20T11:15:46.343Z,2.48
2018-03-20T11:18:15.299Z,2.24
2018-03-20T11:20:42.804Z,2.43
2018-03-20T11:23:10.280Z,2.35
2018-03-20T11:25:37.870Z,2.35
2018-03-20T11:28:05.367Z,2.30
2018-03-20T11:30:32.824Z,1.98
2018-03-20T11:33:00.293Z,1.94
2018-03-20T11:35:27.778Z,2.10
2018-03-20T11:37:55.244Z,2.07
2018-03-20T11:40:22.872Z,2.07
2018-03-20T11:42:50.357Z,2.15
2018-03-20T11:45:18.379Z,1.99
2018-03-20T11:47:45.881Z,2.47
2018-03-20T11:50:13.436Z,2.67
2018-03-20T11:52:40.916Z,2.39
2018-03-20T11:55:09.045Z,2.34
2018-03-20T11:57:36.531Z,2.37
2018-03-20T12:00:04.088Z,2.55
2018-03-20T12:02:32.085Z,2.52
2018-03-20T12:04:59.610Z,2.55
2018-03-20T12:07:27.143Z,2.68
2018-03-20T12:09:56.689Z,2.68
2018-03-20T12:12:24.953Z,2.51
2018-03-20T12:14:52.436Z,2.41
2018-03-20T12:17:19.935Z,2.10
2018-03-20T12:19:47.402Z,1.97
2018-03-20T12:22:15.237Z,1.84
2018-03-20T12:24:42.803Z,2.17
2018-03-20T12:27:10.283Z,2.43
2018-03-20T12:29:37.772Z,2.55
2018-03-20T12:32:05.235Z,2.23
2018-03-20T12:34:32.768Z,2.24
2018-03-20T12:37:00.230Z,2.22
2018-03-20T12:39:27.746Z,2.09
2018-03-20T12:41:55.225Z,2.06
2018-03-20T12:44:22.747Z,2.60
2018-03-20T12:46:50.341Z,2.27
2018-03-20T12:49:17.893Z,2.53
2018-03-20T12:51:45.418Z,2.69
2018-03-20T12:54:12.910Z,2.67
2018-03-20T12:56:40.865Z,2.37
2018-03-20T12:59:09.225Z,2.44
2018-03-20T13:01:36.760Z,2.08
2018-03-20T13:04:04.287Z,2.21
2018-03-20T13:06:31.789Z,2.18
2018-03-20T13:08:59.289Z,2.10
2018-03-20T13:11:26.816Z,2.22
2018-03-20T13:13:54.365Z,2.09
2018-03-20T13:16:21.828Z,1.93
2018-03-20T13:18:49.322Z,2.03
2018-03-20T13:21:17.721Z,2.13
2018-03-20T13:23:45.172Z,2.05
2018-03-20T13:26:12.655Z,1.97
2018-03-20T13:28:40.160Z,1.66
2018-03-20T13:31:07.622Z,1.84
2018-03-20T13:33:35.873Z,1.90
2018-03-20T13:36:05.440Z,1.84
2018-03-20T13:38:32.936Z,1.89
2018-03-20T13:41:01.804Z,1.86
2018-03-20T13:43:29.262Z,1.91
2018-03-20T13:45:56.739Z,2.09
2018-03-20T13:48:27.609Z,2.15
2018-03-20T13:50:58.678Z,2.16
2018-03-20T13:53:27.897Z,2.17
2018-03-20T13:55:55.358Z,2.42
2018-03-20T13:58:22.825Z,2.77
2018-03-20T14:00:50.305Z,2.86
2018-03-20T14:03:17.764Z,2.78
2018-03-20T14:05:45.226Z,2.97
2018-03-20T14:08:12.751Z,2.85
2018-03-20T14:10:40.214Z,2.84
2018-03-20T14:13:07.719Z,2.87
2018-03-20T14:15:35.204Z,3.05
2018-03-20T14:18:02.711Z,3.10
2018-03-20T14:20:38.549Z,3.20
2018-03-20T14:23:06.028Z,3.44
2018-03-20T14:25:33.598Z,3.46
2018-03-20T14:28:01.094Z,3.24
2018-03-20T14:30:28.569Z,3.33
2018-03-20T14:32:56.074Z,3.46
2018-03-20T14:35:23.581Z,2.94
2018-03-20T14:37:51.044Z,2.59
2018-03-20T14:40:18.668Z,2.23
2018-03-20T14:42:46.653Z,2.38
2018-03-20T14:45:14.546Z,2.41
2018-03-20T14:47:42.005Z,2.47
2018-03-20T14:50:09.483Z,2.63
2018-03-20T14:52:36.959Z,2.50
2018-03-20T14:55:04.459Z,2.42
2018-03-20T14:57:31.930Z,2.42
2018-03-20T14:59:59.416Z,2.20
2018-03-20T15:02:26.893Z,2.07
2018-03-20T15:04:55.443Z,1.92
2018-03-20T15:07:23.925Z,2.01
2018-03-20T15:09:51.442Z,2.11
2018-03-20T15:12:18.916Z,2.01
2018-03-20T15:14:46.903Z,2.07
2018-03-20T15:17:18.959Z,1.69
2018-03-20T15:19:46.492Z,1.97
2018-03-20T15:22:14.829Z,2.01
2018-03-20T15:24:42.299Z,2.01
2018-03-20T15:27:09.792Z,1.89
2018-03-20T15:29:37.299Z,1.85
2018-03-20T15:32:04.762Z,1.88
2018-03-20T15:34:32.247Z,2.13
2018-03-20T15:37:02.843Z,2.01
2018-03-20T15:39:30.303Z,2.10
2018-03-20T15:41:57.788Z,2.05
2018-03-20T15:44:25.361Z,2.14
2018-03-20T15:46:52.859Z,2.22
2018-03-20T15:49:20.332Z,2.39
2018-03-20T15:51:48.686Z,2.38
2018-03-20T15:54:16.196Z,2.49
2018-03-20T15:56:43.686Z,2.43
2018-03-20T15:59:11.176Z,2.72
2018-03-20T16:01:38.648Z,3.27
2018-03-20T16:04:06.121Z,3.59
2018-03-20T16:06:33.579Z,3.26
2018-03-20T16:09:01.069Z,2.96
2018-03-20T16:11:28.543Z,2.51
2018-03-20T16:13:56.025Z,2.35
2018-03-20T16:16:23.575Z,2.60
2018-03-20T16:18:51.083Z,2.46
2018-03-20T16:21:18.576Z,2.59
2018-03-20T16:23:46.028Z,2.50
2018-03-20T16:26:13.499Z,2.33
2018-03-20T16:28:41.705Z,2.15
2018-03-20T16:31:09.589Z,1.85
2018-03-20T16:33:37.131Z,1.97
2018-03-20T16:36:04.579Z,1.67
2018-03-20T16:38:33.420Z,1.67
2018-03-20T16:41:01.073Z,1.65
2018-03-20T16:43:28.602Z,1.55
2018-03-20T16:45:56.175Z,1.50
2018-03-20T16:48:24.508Z,1.44
2018-03-20T16:50:52.032Z,1.40
2018-03-20T16:55:52.625Z,1.43
2018-03-20T16:58:21.507Z,1.43
2018-03-20T17:00:49.122Z,1.36
2018-03-20T17:03:16.808Z,1.30
2018-03-20T17:05:44.268Z,1.21
2018-03-20T17:08:11.744Z,1.17
2018-03-20T17:10:39.208Z,1.19
2018-03-20T17:13:07.507Z,1.19
2018-03-20T17:15:34.991Z,1.06
2018-03-20T17:18:02.517Z,0.97
2018-03-20T17:20:30.084Z,0.95
2018-03-20T17:22:57.633Z,0.98
2018-03-20T17:25:25.835Z,0.91
2018-03-20T17:27:53.320Z,0.91
2018-03-20T17:30:20.874Z,0.96
2018-03-20T17:32:48.353Z,0.91
2018-03-20T17:35:15.871Z,0.89
2018-03-20T17:37:43.360Z,0.85
2018-03-20T17:40:12.055Z,0.91
2018-03-20T17:42:40.321Z,0.81
2018-03-20T17:45:07.824Z,0.88
2018-03-20T17:47:35.331Z,0.84
2018-03-20T17:50:03.104Z,0.83
2018-03-20T17:52:30.698Z,0.81
2018-03-20T17:54:58.223Z,0.78
2018-03-20T17:57:25.830Z,0.79
2018-03-20T17:59:53.317Z,0.79
2018-03-20T18:02:21.053Z,0.79
2018-03-20T18:04:48.602Z,0.86
2018-03-20T18:07:16.182Z,0.90
2018-03-20T18:09:43.681Z,0.96
2018-03-20T18:12:11.241Z,0.98
2018-03-20T18:14:38.828Z,1.05
2018-03-20T18:17:06.332Z,1.06
2018-03-20T18:19:33.820Z,1.12
2018-03-20T18:22:01.357Z,1.15
2018-03-20T18:24:29.813Z,1.18
2018-03-20T18:26:58.129Z,1.25
2018-03-20T18:29:25.667Z,1.15
2018-03-20T18:31:53.151Z,1.24
2018-03-20T18:34:20.656Z,1.20
2018-03-20T18:36:49.205Z,1.26
2018-03-20T18:39:16.829Z,1.21
2018-03-20T18:41:44.399Z,1.22
2018-03-20T18:44:11.946Z,1.27
2018-03-20T18:46:39.499Z,1.36
2018-03-20T18:49:07.949Z,1.34
2018-03-20T18:51:38.584Z,1.34
2018-03-20T18:54:07.058Z,1.24
2018-03-20T18:56:36.623Z,1.21
2018-03-20T18:59:04.204Z,1.14
2018-03-20T19:01:31.749Z,1.15
2018-03-20T19:03:59.284Z,1.09
2018-03-20T19:06:27.024Z,1.14
2018-03-20T19:08:54.564Z,1.12
2018-03-20T19:11:22.043Z,1.12
2018-03-20T19:13:49.659Z,1.07
2018-03-20T19:16:18.362Z,0.96
2018-03-20T19:18:46.003Z,0.92
2018-03-20T19:21:13.549Z,0.78
2018-03-20T19:23:42.202Z,0.70
2018-03-20T19:26:09.737Z,0.68
2018-03-20T19:28:37.491Z,0.57
2018-03-20T19:31:05.508Z,0.57
2018-03-20T19:33:33.034Z,0.61
2018-03-20T19:36:00.879Z,0.58
2018-03-20T19:38:28.376Z,0.55
2018-03-20T19:40:56.167Z,0.57
2018-03-20T19:43:23.692Z,0.47
2018-03-20T19:45:51.283Z,0.51
2018-03-20T19:48:18.890Z,0.46
2018-03-20T19:50:46.497Z,0.51
2018-03-20T19:53:18.271Z,0.49
2018-03-20T19:55:45.820Z,0.39
2018-03-20T19:58:13.393Z,0.26
2018-03-20T20:00:43.478Z,0.25
2018-03-20T20:03:14.788Z,0.25
2018-03-20T20:05:42.388Z,0.24
2018-03-20T20:08:09.875Z,0.19
2018-03-20T20:10:38.675Z,0.13
2018-03-20T20:13:06.224Z,0.17
2018-03-20T20:15:33.782Z,0.17
2018-03-20T20:18:01.280Z,0.21
2018-03-20T20:20:31.172Z,0.26
2018-03-20T20:22:59.101Z,0.10
2018-03-20T20:25:26.633Z,0.10
2018-03-20T20:27:54.107Z,0.06
2018-03-20T20:30:21.673Z,0.11
2018-03-20T20:32:49.217Z,0.21
2018-03-20T20:37:48.980Z,0.24
2018-03-20T20:40:16.646Z,0.17
2018-03-20T20:42:44.124Z,0.26
2018-03-20T20:45:11.650Z,0.13
2018-03-20T20:47:39.413Z,0.12
2018-03-20T20:50:07.407Z,0.18
2018-03-20T20:52:35.005Z,0.25
2018-03-20T20:55:02.518Z,0.18
2018-03-20T20:57:30.189Z,0.12
2018-03-20T20:59:57.881Z,0.24
2018-03-20T21:02:25.439Z,0.14
2018-03-20T21:04:52.997Z,0.09
2018-03-20T21:07:22.410Z,0.22
2018-03-20T21:09:49.937Z,0.28
2018-03-20T21:12:17.533Z,0.25
2018-03-20T21:14:45.124Z,0.28
2018-03-20T21:17:13.559Z,0.29
2018-03-20T21:19:41.916Z,0.13
2018-03-20T21:22:09.430Z,0.13
2018-03-20T21:24:41.360Z,0.21
2018-03-20T21:27:08.919Z,0.12
2018-03-20T21:29:39.303Z,0.05
2018-03-20T21:32:07.504Z,-0.09
2018-03-20T21:34:35.102Z,-0.13
2018-03-20T21:37:03.122Z,-0.20
2018-03-20T21:39:30.603Z,-0.14
2018-03-20T21:41:58.087Z,-0.06
2018-03-20T21:44:25.589Z,-0.16
2018-03-20T21:46:53.719Z,-0.12
2018-03-20T21:49:21.924Z,-0.23
2018-03-20T21:51:49.448Z,-0.20
2018-03-20T21:54:16.918Z,-0.36
2018-03-20T21:56:44.450Z,-0.24
2018-03-20T21:59:12.560Z,-0.32
2018-03-20T22:01:40.072Z,-0.34
2018-03-20T22:04:07.950Z,-0.07
2018-03-20T22:06:35.395Z,-0.11
2018-03-20T22:09:03.216Z,-0.19
2018-03-20T22:11:30.725Z,-0.19
2018-03-20T22:13:58.253Z,-0.10
2018-03-20T22:16:26.469Z,-0.18
2018-03-20T22:18:54.052Z,-0.10
2018-03-20T22:21:21.579Z,-0.03
2018-03-20T22:23:49.077Z,-0.10
2018-03-20T22:26:16.746Z,-0.23
2018-03-20T22:28:44.247Z,0.04
2018-03-20T22:31:11.755Z,-0.09
2018-03-20T22:33:39.257Z,-0.18
2018-03-20T22:36:06.735Z,-0.10
2018-03-20T22:38:34.216Z,-0.04
2018-03-20T22:41:01.695Z,-0.06
2018-03-20T22:43:29.191Z,-0.02
2018-03-20T22:45:56.682Z,-0.02
2018-03-20T22:48:24.243Z,0.06
2018-03-20T22:50:51.740Z,0.04
2018-03-20T22:53:19.227Z,-0.04
2018-03-20T22:55:46.753Z,-0.07
2018-03-20T22:58:14.406Z,-0.08
2018-03-20T23:00:42.438Z,0.02
2018-03-20T23:03:10.070Z,0.03
2018-03-20T23:05:37.593Z,0.02
2018-03-20T23:08:05.065Z,0.01
2018-03-20T23:10:32.970Z,-0.01
2018-03-20T23:13:00.489Z,-0.04
2018-03-20T23:15:27.999Z,-0.05
2018-03-20T23:17:55.479Z,-0.01
2018-03-20T23:20:22.935Z,-0.02
2018-03-20T23:22:50.450Z,-0.02
2018-03-20T23:25:19.547Z,-0.20
2018-03-20T23:27:47.003Z,-0.23
2018-03-20T23:30:14.503Z,-0.27
2018-03-20T23:32:41.992Z,-0.19
2018-03-20T23:35:09.477Z,-0.22
2018-03-20T23:37:37.115Z,-0.27
2018-03-20T23:40:05.627Z,-0.24
2018-03-20T23:42:33.133Z,-0.24
2018-03-20T23:45:00.620Z,-0.26
2018-03-20T23:47:28.111Z,-0.29
2018-03-20T23:49:55.594Z,-0.35
2018-03-20T23:52:23.144Z,-0.32
2018-03-20T23:54:51.451Z,-0.36
2018-03-20T23:57:18.979Z,-0.32
2018-03-20T23:59:46.510Z,-0.34
